createdAt,value
2023-02-24T00:01:14.544Z,86.01
2023-02-24T00:03:41.120Z,88.06
2023-02-24T00:06:07.575Z,90.72
2023-02-24T00:08:34.038Z,90.94
2023-02-24T00:11:09.857Z,86.74
2023-02-24T00:13:36.475Z,86.29
2023-02-24T00:16:03.786Z,86.21
2023-02-24T00:18:30.988Z,86.24
2023-02-24T00:21:07.640Z,87.34
2023-02-24T00:23:34.814Z,85.52
2023-02-24T00:26:01.514Z,88.36
2023-02-24T00:28:28.353Z,87.60
2023-02-24T00:30:54.982Z,86.19
2023-02-24T00:33:21.632Z,87.91
2023-02-24T00:35:50.274Z,89.01
2023-02-24T00:38:17.055Z,87.43
2023-02-24T00:40:43.549Z,87.05
2023-02-24T00:43:10.874Z,90.02
2023-02-24T00:45:39.983Z,91.08
2023-02-24T00:48:06.482Z,90.79
2023-02-24T00:50:32.817Z,88.88
2023-02-24T00:52:59.209Z,86.19
2023-02-24T00:55:25.616Z,87.73
2023-02-24T00:57:52.820Z,89.79
2023-02-24T01:00:19.508Z,90.16
2023-02-24T01:02:49.155Z,87.89
2023-02-24T01:05:15.615Z,88.61
2023-02-24T01:07:41.971Z,87.06
2023-02-24T01:10:10.251Z,86.15
2023-02-24T01:12:38.110Z,88.35
2023-02-24T01:15:05.433Z,88.25
2023-02-24T01:17:34.396Z,88.26
2023-02-24T01:20:03.454Z,85.65
2023-02-24T01:22:29.888Z,84.95
2023-02-24T01:24:56.302Z,86.75
2023-02-24T01:27:22.767Z,89.84
2023-02-24T01:29:49.184Z,91.73
2023-02-24T01:32:17.081Z,92.31
2023-02-24T01:34:44.491Z,88.80
2023-02-24T01:37:11.150Z,88.70
2023-02-24T01:39:37.551Z,91.06
2023-02-24T01:42:04.585Z,88.78
2023-02-24T01:44:31.211Z,88.01
2023-02-24T01:46:58.637Z,86.78
2023-02-24T01:49:31.720Z,86.98
2023-02-24T01:51:58.171Z,88.52
2023-02-24T01:54:44.736Z,87.12
2023-02-24T01:57:16.649Z,88.66
2023-02-24T01:59:45.085Z,87.22
2023-02-24T02:02:31.898Z,87.47
2023-02-24T02:05:03.308Z,89.04
2023-02-24T02:07:38.181Z,88.46
2023-02-24T02:10:08.215Z,87.11
2023-02-24T02:12:35.792Z,88.31
2023-02-24T02:15:03.513Z,86.05
2023-02-24T02:17:55.871Z,88.46
2023-02-24T02:20:28.654Z,87.76
2023-02-24T02:22:55.061Z,87.43
2023-02-24T02:25:21.314Z,87.28
2023-02-24T02:28:05.947Z,88.32
2023-02-24T02:30:38.146Z,87.99
2023-02-24T02:33:17.217Z,87.38
2023-02-24T02:35:49.011Z,87.92
2023-02-24T02:38:43.424Z,89.44
2023-02-24T02:41:18.770Z,88.29
2023-02-24T02:43:50.208Z,90.35
2023-02-24T02:46:36.806Z,90.50
2023-02-24T02:49:25.576Z,90.94
2023-02-24T02:51:54.541Z,89.61
2023-02-24T02:54:35.783Z,90.80
2023-02-24T02:57:10.503Z,88.49
2023-02-24T02:59:39.736Z,87.58
2023-02-24T03:02:08.672Z,85.34
2023-02-24T03:04:35.470Z,85.80
2023-02-24T03:07:05.596Z,84.42
2023-02-24T03:09:35.008Z,89.49
2023-02-24T03:12:09.925Z,89.40
2023-02-24T03:14:43.077Z,90.52
2023-02-24T03:17:13.684Z,90.07
2023-02-24T03:19:40.802Z,88.81
2023-02-24T03:22:09.912Z,87.91
2023-02-24T03:24:36.434Z,87.28
2023-02-24T03:27:07.449Z,86.53
2023-02-24T03:29:34.785Z,87.43
2023-02-24T03:32:09.310Z,87.72
2023-02-24T03:34:41.889Z,89.26
2023-02-24T03:37:08.793Z,89.29
2023-02-24T03:39:35.353Z,90.54
2023-02-24T03:42:14.918Z,90.13
2023-02-24T03:44:41.382Z,87.74
2023-02-24T03:47:07.895Z,86.72
2023-02-24T03:49:34.872Z,86.50
2023-02-24T03:52:01.527Z,88.34
2023-02-24T03:54:27.971Z,87.59
2023-02-24T03:57:03.808Z,87.80
2023-02-24T03:59:35.037Z,88.50
2023-02-24T04:02:07.705Z,89.14
2023-02-24T04:04:40.231Z,88.36
2023-02-24T04:07:16.968Z,87.73
2023-02-24T04:10:02.029Z,86.24
2023-02-24T04:12:37.334Z,84.51
2023-02-24T04:15:11.239Z,84.43
2023-02-24T04:17:41.627Z,85.61
2023-02-24T04:20:10.107Z,85.50
2023-02-24T04:22:38.334Z,85.46
2023-02-24T04:25:06.316Z,87.60
2023-02-24T04:27:33.465Z,87.42
2023-02-24T04:30:11.290Z,87.59
2023-02-24T04:32:38.712Z,86.10
2023-02-24T04:35:05.989Z,85.32
2023-02-24T04:37:35.322Z,86.19
2023-02-24T04:40:01.909Z,87.52
2023-02-24T04:42:31.482Z,85.04
2023-02-24T04:44:58.191Z,85.66
2023-02-24T04:47:24.803Z,85.89
2023-02-24T04:49:51.216Z,86.68
2023-02-24T04:52:17.733Z,85.64
2023-02-24T04:54:46.368Z,87.77
2023-02-24T04:57:12.723Z,86.67
2023-02-24T04:59:39.202Z,87.40
2023-02-24T05:02:07.996Z,88.12
2023-02-24T05:04:35.211Z,88.08
2023-02-24T05:07:01.800Z,88.29
2023-02-24T05:09:28.344Z,89.08
2023-02-24T05:12:00.146Z,87.26
2023-02-24T05:14:27.103Z,88.39
2023-02-24T05:16:53.804Z,87.20
2023-02-24T05:19:22.813Z,87.50
2023-02-24T05:21:49.260Z,88.11
2023-02-24T05:24:15.732Z,88.52
2023-02-24T05:26:42.107Z,87.62
2023-02-24T05:29:10.053Z,88.72
2023-02-24T05:31:36.507Z,87.40
2023-02-24T05:34:06.569Z,89.79
2023-02-24T05:36:34.616Z,89.77
2023-02-24T05:39:01.364Z,87.74
2023-02-24T05:41:35.033Z,88.85
2023-02-24T05:44:02.937Z,87.71
2023-02-24T05:46:31.043Z,88.46
2023-02-24T05:49:01.470Z,88.36
2023-02-24T05:51:31.070Z,87.31
2023-02-24T05:53:58.023Z,88.37
2023-02-24T05:56:24.516Z,88.10
2023-02-24T05:58:54.816Z,87.71
2023-02-24T06:01:23.556Z,88.37
2023-02-24T06:03:55.549Z,87.76
2023-02-24T06:06:29.628Z,87.97
2023-02-24T06:09:04.764Z,87.58
2023-02-24T06:11:34.168Z,89.74
2023-02-24T06:14:01.322Z,89.75
2023-02-24T06:16:33.158Z,89.77
2023-02-24T06:19:07.761Z,89.91
2023-02-24T06:21:34.955Z,90.30
2023-02-24T06:24:04.667Z,90.08
2023-02-24T06:26:34.150Z,90.73
2023-02-24T06:29:02.759Z,91.03
2023-02-24T06:31:29.258Z,92.18
2023-02-24T06:33:55.730Z,90.10
2023-02-24T06:36:22.181Z,89.72
2023-02-24T06:38:48.675Z,90.49
2023-02-24T06:41:15.387Z,89.25
2023-02-24T06:43:43.083Z,89.50
2023-02-24T06:46:11.071Z,89.05
2023-02-24T06:48:37.746Z,88.88
2023-02-24T06:51:08.089Z,88.95
2023-02-24T06:53:34.451Z,88.23
2023-02-24T06:56:05.077Z,88.31
2023-02-24T06:58:32.507Z,88.35
2023-02-24T07:00:58.934Z,88.44
2023-02-24T07:03:27.725Z,89.08
2023-02-24T07:05:54.530Z,88.39
2023-02-24T07:08:22.415Z,88.32
2023-02-24T07:10:56.448Z,88.44
2023-02-24T07:13:26.683Z,88.49
2023-02-24T07:15:53.078Z,88.28
2023-02-24T07:18:19.722Z,88.86
2023-02-24T07:20:46.349Z,90.52
2023-02-24T07:23:13.761Z,89.24
2023-02-24T07:25:41.351Z,89.86
2023-02-24T07:28:08.464Z,91.66
2023-02-24T07:30:35.104Z,90.66
2023-02-24T07:33:02.123Z,89.56
2023-02-24T07:35:29.031Z,89.93
2023-02-24T07:37:55.554Z,89.55
2023-02-24T07:40:22.290Z,88.97
2023-02-24T07:42:48.954Z,89.79
2023-02-24T07:45:18.048Z,89.46
2023-02-24T07:47:44.644Z,90.06
2023-02-24T07:50:12.075Z,89.89
2023-02-24T07:52:38.848Z,90.08
2023-02-24T07:55:05.773Z,88.83
2023-02-24T07:57:32.176Z,89.56
2023-02-24T07:59:58.732Z,89.32
2023-02-24T08:02:26.180Z,88.56
2023-02-24T08:04:53.041Z,89.14
2023-02-24T08:07:19.964Z,88.99
2023-02-24T08:09:46.807Z,89.48
2023-02-24T08:12:18.371Z,89.41
2023-02-24T08:14:45.707Z,89.83
2023-02-24T08:17:12.094Z,88.99
2023-02-24T08:19:38.769Z,89.81
2023-02-24T08:22:11.263Z,91.41
2023-02-24T08:24:37.974Z,90.51
2023-02-24T08:27:04.683Z,89.96
2023-02-24T08:29:31.626Z,89.00
2023-02-24T08:31:58.161Z,88.87
2023-02-24T08:34:24.731Z,88.06
2023-02-24T08:36:51.425Z,88.27
2023-02-24T08:39:18.312Z,88.28
2023-02-24T08:41:44.965Z,88.00
2023-02-24T08:44:12.415Z,88.92
2023-02-24T08:46:39.590Z,88.68
2023-02-24T08:49:06.248Z,88.39
2023-02-24T08:51:35.937Z,88.87
2023-02-24T08:54:05.216Z,88.57
2023-02-24T08:56:32.100Z,88.62
2023-02-24T08:58:59.656Z,88.61
2023-02-24T09:01:30.755Z,88.55
2023-02-24T09:03:58.329Z,89.03
2023-02-24T09:06:36.968Z,90.34
2023-02-24T09:09:04.516Z,89.70
2023-02-24T09:11:30.860Z,89.87
2023-02-24T09:13:57.249Z,89.31
2023-02-24T09:16:24.325Z,90.52
2023-02-24T09:18:53.596Z,90.73
2023-02-24T09:21:22.888Z,90.04
2023-02-24T09:23:49.744Z,91.81
2023-02-24T09:26:18.475Z,91.57
2023-02-24T09:28:45.210Z,91.56
2023-02-24T09:31:11.921Z,91.90
2023-02-24T09:33:40.841Z,92.00
2023-02-24T09:36:08.747Z,91.96
2023-02-24T09:38:39.498Z,92.28
2023-02-24T09:41:18.835Z,92.45
2023-02-24T09:43:45.964Z,92.13
2023-02-24T09:46:13.121Z,91.27
2023-02-24T09:48:54.695Z,91.05
2023-02-24T09:51:24.027Z,90.89
2023-02-24T09:53:53.249Z,91.42
2023-02-24T09:56:26.519Z,92.95
2023-02-24T09:58:59.544Z,92.74
2023-02-24T10:01:26.246Z,92.16
2023-02-24T10:04:20.786Z,93.54
2023-02-24T10:07:02.198Z,93.32
2023-02-24T10:09:38.271Z,93.07
2023-02-24T10:12:25.076Z,92.87
2023-02-24T10:15:00.394Z,92.99
2023-02-24T10:17:47.225Z,91.54
2023-02-24T10:20:37.065Z,90.74
2023-02-24T10:23:14.309Z,91.01
2023-02-24T10:25:57.047Z,91.20
2023-02-24T10:28:53.013Z,90.94
2023-02-24T10:31:20.002Z,92.23
2023-02-24T10:34:13.043Z,92.18
2023-02-24T10:36:39.698Z,91.95
2023-02-24T10:39:14.209Z,91.76
2023-02-24T10:41:44.127Z,90.50
2023-02-24T10:44:11.592Z,89.82
2023-02-24T10:46:42.126Z,91.63
2023-02-24T10:49:11.540Z,90.10
2023-02-24T10:51:40.617Z,89.81
2023-02-24T10:54:10.663Z,90.10
2023-02-24T10:56:43.266Z,90.70
2023-02-24T10:59:20.717Z,92.50
2023-02-24T11:01:52.698Z,91.65
2023-02-24T11:04:20.634Z,92.20
2023-02-24T11:06:47.602Z,91.15
2023-02-24T11:09:18.441Z,89.84
2023-02-24T11:11:46.191Z,90.93
2023-02-24T11:14:15.213Z,89.51
2023-02-24T11:16:47.486Z,91.15
2023-02-24T11:19:14.580Z,92.54
2023-02-24T11:21:42.775Z,91.70
2023-02-24T11:24:13.428Z,92.19
2023-02-24T11:26:40.850Z,93.70
2023-02-24T11:29:25.756Z,94.65
2023-02-24T11:32:07.948Z,94.90
2023-02-24T11:34:43.013Z,93.45
2023-02-24T11:37:09.397Z,92.59
2023-02-24T11:39:36.201Z,91.27
2023-02-24T11:42:07.188Z,90.27
2023-02-24T11:44:38.380Z,91.42
2023-02-24T11:47:12.818Z,89.60
2023-02-24T11:49:53.181Z,89.40
2023-02-24T11:52:31.031Z,87.52
2023-02-24T11:54:59.248Z,88.45
2023-02-24T11:57:29.080Z,87.45
2023-02-24T12:00:07.126Z,87.90
2023-02-24T12:03:03.616Z,88.19
2023-02-24T12:05:33.717Z,88.02
2023-02-24T12:08:11.313Z,87.44
2023-02-24T12:10:40.687Z,88.51
2023-02-24T12:13:10.258Z,87.71
2023-02-24T12:15:55.538Z,87.63
2023-02-24T12:18:34.126Z,88.78
2023-02-24T12:21:04.927Z,92.74
2023-02-24T12:23:42.994Z,94.26
2023-02-24T12:26:24.549Z,93.47
2023-02-24T12:29:01.788Z,89.77
2023-02-24T12:31:28.573Z,88.19
2023-02-24T12:34:02.201Z,90.36
2023-02-24T12:36:41.070Z,86.99
2023-02-24T12:39:10.658Z,88.72
2023-02-24T12:41:49.216Z,86.27
2023-02-24T12:44:29.773Z,86.62
2023-02-24T12:47:04.930Z,89.18
2023-02-24T12:49:31.468Z,89.81
2023-02-24T12:52:07.223Z,86.61
2023-02-24T12:54:39.767Z,85.16
2023-02-24T12:57:14.361Z,86.56
2023-02-24T12:59:41.338Z,85.37
2023-02-24T13:02:17.231Z,85.06
2023-02-24T13:05:02.259Z,86.60
2023-02-24T13:07:31.519Z,89.07
2023-02-24T13:10:18.524Z,88.17
2023-02-24T13:12:59.657Z,87.43
2023-02-24T13:15:27.277Z,88.58
2023-02-24T13:17:56.346Z,88.55
2023-02-24T13:20:29.367Z,88.71
2023-02-24T13:22:57.305Z,88.68
2023-02-24T13:25:30.273Z,87.89
2023-02-24T13:27:58.584Z,89.19
2023-02-24T13:30:27.072Z,89.21
2023-02-24T13:33:22.934Z,87.04
2023-02-24T13:36:07.219Z,86.98
2023-02-24T13:38:35.257Z,87.86
2023-02-24T13:41:18.850Z,87.82
2023-02-24T13:44:02.600Z,86.71
2023-02-24T13:46:34.877Z,88.46
2023-02-24T13:49:10.382Z,87.50
2023-02-24T13:51:51.797Z,88.12
2023-02-24T13:54:44.505Z,88.52
2023-02-24T13:57:16.965Z,87.48
2023-02-24T13:59:49.365Z,89.57
2023-02-24T14:02:17.347Z,87.59
2023-02-24T14:04:52.680Z,89.04
2023-02-24T14:07:26.580Z,88.70
2023-02-24T14:10:15.374Z,88.40
2023-02-24T14:12:44.781Z,88.28
2023-02-24T14:15:14.336Z,89.50
2023-02-24T14:17:53.435Z,90.98
2023-02-24T14:20:23.195Z,90.31
2023-02-24T14:22:53.938Z,89.94
2023-02-24T14:25:27.896Z,90.71
2023-02-24T14:28:02.542Z,92.65
2023-02-24T14:30:36.114Z,92.57
2023-02-24T14:33:04.569Z,91.16
2023-02-24T14:35:41.647Z,89.99
2023-02-24T14:38:27.643Z,90.83
2023-02-24T14:40:54.489Z,88.67
2023-02-24T14:43:21.398Z,90.19
2023-02-24T14:45:49.772Z,89.69
2023-02-24T14:48:25.896Z,88.47
2023-02-24T14:50:55.088Z,88.32
2023-02-24T14:53:22.992Z,88.10
2023-02-24T14:55:50.984Z,88.42
2023-02-24T14:58:33.461Z,88.45
2023-02-24T15:01:03.563Z,88.34
2023-02-24T15:03:30.237Z,88.46
2023-02-24T15:05:58.922Z,88.93
2023-02-24T15:08:25.473Z,89.45
2023-02-24T15:10:52.460Z,90.54
2023-02-24T15:13:32.189Z,91.03
2023-02-24T15:16:04.589Z,91.28
2023-02-24T15:18:31.125Z,90.03
2023-02-24T15:21:02.546Z,90.56
2023-02-24T15:23:34.277Z,90.94
2023-02-24T15:26:01.314Z,91.64
2023-02-24T15:28:29.641Z,90.40
2023-02-24T15:31:10.539Z,90.72
2023-02-24T15:33:42.081Z,89.24
2023-02-24T15:36:11.218Z,91.61
2023-02-24T15:38:39.439Z,91.35
2023-02-24T15:41:07.108Z,89.88
2023-02-24T15:43:35.191Z,89.09
2023-02-24T15:46:12.711Z,89.40
2023-02-24T15:48:41.971Z,89.11
2023-02-24T15:51:17.591Z,90.37
2023-02-24T15:53:47.559Z,89.78
2023-02-24T15:56:14.117Z,89.82
2023-02-24T15:58:43.299Z,91.23
2023-02-24T16:01:10.703Z,90.64
2023-02-24T16:03:37.247Z,90.80
2023-02-24T16:06:04.309Z,90.63
2023-02-24T16:08:31.157Z,90.87
2023-02-24T16:10:57.555Z,92.38
2023-02-24T16:13:25.934Z,92.59
2023-02-24T16:15:53.154Z,92.20
2023-02-24T16:18:22.399Z,91.74
2023-02-24T16:20:49.627Z,91.85
2023-02-24T16:23:16.341Z,92.24
2023-02-24T16:25:43.577Z,92.38
2023-02-24T16:28:14.689Z,92.48
2023-02-24T16:30:41.541Z,91.47
2023-02-24T16:33:12.329Z,91.66
2023-02-24T16:35:45.055Z,91.50
2023-02-24T16:38:12.981Z,91.13
2023-02-24T16:40:40.831Z,90.86
2023-02-24T16:43:07.861Z,90.50
2023-02-24T16:45:34.655Z,89.98
2023-02-24T16:48:04.761Z,90.26
2023-02-24T16:50:33.183Z,91.76
2023-02-24T16:53:00.020Z,91.13
2023-02-24T16:55:26.887Z,92.11
2023-02-24T16:57:55.854Z,91.63
2023-02-24T17:00:24.221Z,91.09
2023-02-24T17:02:54.145Z,91.38
2023-02-24T17:05:24.462Z,90.79
2023-02-24T17:07:53.651Z,90.89
2023-02-24T17:10:21.189Z,91.12
2023-02-24T17:12:47.826Z,91.57
2023-02-24T17:15:15.807Z,91.85
2023-02-24T17:17:42.871Z,91.97
2023-02-24T17:20:14.284Z,93.01
2023-02-24T17:22:42.367Z,92.34
2023-02-24T17:25:16.022Z,92.54
2023-02-24T17:27:42.537Z,91.67
2023-02-24T17:30:38.054Z,90.64
2023-02-24T17:33:18.074Z,91.32
2023-02-24T17:36:02.012Z,91.41
2023-02-24T17:38:39.140Z,91.43
2023-02-24T17:41:05.679Z,90.94
2023-02-24T17:43:32.144Z,92.43
2023-02-24T17:46:02.075Z,93.59
2023-02-24T17:48:30.196Z,93.55
2023-02-24T17:50:58.785Z,91.60
2023-02-24T17:53:25.373Z,91.99
2023-02-24T17:56:02.891Z,92.18
2023-02-24T17:58:30.025Z,91.79
2023-02-24T18:00:59.040Z,91.83
2023-02-24T18:03:25.722Z,91.99
2023-02-24T18:06:12.381Z,91.85
2023-02-24T18:08:39.295Z,91.47
2023-02-24T18:11:06.486Z,91.36
2023-02-24T18:13:33.453Z,90.46
2023-02-24T18:16:00.257Z,90.78
2023-02-24T18:18:27.553Z,91.17
2023-02-24T18:20:59.540Z,91.05
2023-02-24T18:23:29.256Z,90.90
2023-02-24T18:26:05.667Z,90.92
2023-02-24T18:28:32.569Z,91.20
2023-02-24T18:30:59.589Z,91.26
2023-02-24T18:33:26.923Z,91.28
2023-02-24T18:36:01.250Z,92.06
2023-02-24T18:38:28.629Z,92.44
2023-02-24T18:40:58.982Z,92.53
2023-02-24T18:43:26.357Z,92.43
2023-02-24T18:46:01.046Z,92.58
2023-02-24T18:48:29.574Z,93.15
2023-02-24T18:50:57.603Z,92.98
2023-02-24T18:53:26.758Z,92.69
2023-02-24T18:56:01.610Z,92.17
2023-02-24T18:58:31.152Z,92.66
2023-02-24T19:00:59.607Z,92.47
2023-02-24T19:03:27.918Z,92.22
2023-02-24T19:05:55.093Z,92.18
2023-02-24T19:08:22.726Z,92.48
2023-02-24T19:10:50.574Z,92.93
2023-02-24T19:13:17.776Z,92.86
2023-02-24T19:15:45.631Z,92.59
2023-02-24T19:18:18.447Z,92.55
2023-02-24T19:20:48.408Z,92.58
2023-02-24T19:23:17.710Z,92.50
2023-02-24T19:25:47.833Z,92.38
2023-02-24T19:28:17.240Z,91.71
2023-02-24T19:30:45.390Z,91.96
2023-02-24T19:33:13.347Z,92.61
2023-02-24T19:35:43.180Z,92.76
2023-02-24T19:38:13.954Z,92.40
2023-02-24T19:40:41.188Z,92.49
2023-02-24T19:43:08.164Z,92.77
2023-02-24T19:45:34.825Z,92.78
2023-02-24T19:48:01.527Z,92.36
2023-02-24T19:50:28.086Z,92.53
2023-02-24T19:52:57.105Z,92.75
2023-02-24T19:55:26.361Z,92.86
2023-02-24T19:57:53.751Z,92.63
2023-02-24T20:00:25.422Z,92.25
2023-02-24T20:02:52.932Z,91.92
2023-02-24T20:05:19.814Z,91.73
2023-02-24T20:07:46.924Z,91.74
2023-02-24T20:10:17.240Z,91.87
2023-02-24T20:12:43.870Z,91.77
2023-02-24T20:15:12.233Z,91.73
2023-02-24T20:17:39.966Z,91.78
2023-02-24T20:20:32.693Z,91.77
2023-02-24T20:22:59.717Z,91.78
2023-02-24T20:25:26.304Z,91.78
2023-02-24T20:27:54.524Z,91.71
2023-02-24T20:30:21.408Z,92.07
2023-02-24T20:32:48.297Z,92.15
2023-02-24T20:37:56.230Z,92.50
2023-02-24T20:40:32.604Z,92.29
2023-02-24T20:43:08.881Z,92.18
2023-02-24T20:45:58.151Z,92.59
2023-02-24T20:48:26.006Z,92.66
2023-02-24T20:51:17.073Z,92.75
2023-02-24T20:54:04.465Z,93.03
2023-02-24T20:56:34.556Z,92.98
2023-02-24T20:59:19.541Z,93.10
2023-02-24T21:01:50.306Z,93.39
2023-02-24T21:04:19.137Z,93.23
2023-02-24T21:06:45.822Z,92.81
2023-02-24T21:09:12.961Z,92.62
2023-02-24T21:17:44.790Z,92.79
2023-02-24T21:20:25.623Z,92.97
2023-02-24T21:23:20.374Z,92.69
2023-02-24T22:06:47.137Z,92.66
2023-02-24T22:09:24.571Z,92.68
2023-02-24T22:12:11.381Z,92.93
2023-02-24T22:14:48.433Z,93.13
2023-02-24T22:17:48.585Z,93.29
2023-02-24T22:20:33.886Z,93.43
2023-02-24T22:23:02.081Z,93.66
2023-02-24T22:25:45.431Z,93.60
2023-02-24T22:28:12.504Z,93.10
2023-02-24T22:30:59.371Z,92.88
2023-02-24T22:33:27.140Z,93.05
2023-02-24T22:36:01.754Z,93.55
2023-02-24T22:38:33.263Z,93.42
2023-02-24T22:41:13.334Z,93.27
2023-02-24T22:43:41.368Z,93.43
2023-02-24T22:46:33.358Z,93.48
2023-02-24T22:49:00.389Z,93.20
2023-02-24T22:51:34.012Z,92.88
2023-02-24T22:54:07.672Z,92.88
2023-02-24T22:56:34.323Z,93.68
2023-02-24T22:59:23.142Z,93.94
2023-02-24T23:01:50.055Z,93.59
2023-02-24T23:04:37.366Z,93.55
2023-02-24T23:07:04.092Z,93.56
2023-02-24T23:09:35.297Z,93.29
2023-02-24T23:12:04.410Z,92.66
2023-02-24T23:14:30.894Z,92.46
2023-02-24T23:16:59.908Z,92.76
2023-02-24T23:19:26.721Z,93.17
2023-02-24T23:21:53.678Z,93.28
2023-02-24T23:24:20.411Z,93.51
2023-02-24T23:26:49.638Z,93.78
2023-02-24T23:29:18.515Z,93.46
2023-02-24T23:31:45.350Z,93.29
2023-02-24T23:34:12.123Z,92.98
2023-02-24T23:36:39.952Z,93.31
2023-02-24T23:39:07.088Z,93.12
2023-02-24T23:41:34.605Z,93.02
2023-02-24T23:44:04.086Z,93.03
2023-02-24T23:46:31.618Z,93.17
2023-02-24T23:49:08.947Z,93.21
2023-02-24T23:51:47.501Z,93.00
2023-02-24T23:54:18.542Z,92.64
2023-02-24T23:56:45.197Z,93.57
2023-02-24T23:59:15.217Z,93.41
